Time;durP1;ratioP1;P1;durP2;ratioP2;P2;SDS_P1;SDS_P2;PMS_P1;PMS_P2;Temp;Humidity;BMP_temperature;BMP_pressure;BME280_temperature;BME280_humidity;BME280_pressure;Samples;Min_cycle;Max_cycle;Signal;HPM_P1;HPM_P2
2021/09/03 00:02:18;;;;;;;937.95;867.10;;;;;;;13.50;65.23;94060.31;5090072;28;20587;-44
2021/09/03 00:04:43;;;;;;;932.03;862.50;;;;;;;13.66;65.45;94075.69;5090133;28;20036;-48
2021/09/03 00:24:10;;;;;;;981.45;879.95;;;;;;;13.51;65.63;94072.88;5105897;27;20630;-46
2021/09/03 00:26:36;;;;;;;960.78;883.45;;;;;;;13.45;65.95;94066.78;5107689;28;20675;-47
2021/09/03 00:29:01;;;;;;;952.83;881.05;;;;;;;13.33;66.22;94060.13;5103762;28;20031;-46
2021/09/03 00:31:27;;;;;;;977.75;904.40;;;;;;;13.23;66.41;94066.75;5087118;28;20013;-46
2021/09/03 00:33:52;;;;;;;957.72;886.25;;;;;;;13.09;66.82;94057.09;5087251;28;20024;-46
2021/09/03 00:36:18;;;;;;;965.17;895.05;;;;;;;13.10;67.32;94064.88;5087242;28;20035;-46
2021/09/03 00:38:43;;;;;;;946.50;876.75;;;;;;;12.96;66.98;94060.72;5087429;28;20050;-46
2021/09/03 00:41:09;;;;;;;966.47;897.10;;;;;;;12.81;68.09;94057.91;5087471;28;20024;-45
2021/09/03 00:43:35;;;;;;;962.20;893.13;;;;;;;12.55;68.67;94058.91;5087225;28;20054;-46
2021/09/03 00:46:00;;;;;;;984.97;910.47;;;;;;;12.46;69.39;94055.91;5069529;28;20077;-46
2021/09/03 00:48:26;;;;;;;1008.83;932.90;;;;;;;12.46;69.13;94056.66;5068850;28;20039;-45
2021/09/03 00:50:53;;;;;;;1022.75;946.60;;;;;;;12.43;68.95;94054.97;5081665;28;20063;-45
2021/09/03 00:53:19;;;;;;;1017.45;940.92;;;;;;;12.41;68.39;94042.97;5071744;28;20032;-45
2021/09/03 00:55:45;;;;;;;969.40;899.22;;;;;;;12.47;65.87;94049.09;5080497;28;20030;-45
2021/09/03 00:58:10;;;;;;;983.13;911.75;;;;;;;12.61;67.73;94042.88;5077029;28;20031;-45
2021/09/03 01:00:36;;;;;;;968.40;900.20;;;;;;;12.72;65.04;94036.25;5074532;28;20017;-45
2021/09/03 01:03:01;;;;;;;987.15;915.47;;;;;;;12.75;65.23;94046.25;5082582;28;20020;-44
2021/09/03 01:05:26;;;;;;;970.78;899.20;;;;;;;12.79;65.13;94041.09;5086987;28;20389;-44
2021/09/03 01:07:52;;;;;;;967.63;895.28;;;;;;;12.67;65.83;94039.91;5068882;28;20020;-45
2021/09/03 01:10:19;;;;;;;949.33;881.10;;;;;;;12.45;66.41;94037.81;5086466;28;20390;-45
2021/09/03 01:12:46;;;;;;;1005.97;930.83;;;;;;;12.48;67.13;94045.75;5086421;28;20497;-44
2021/09/03 01:15:12;;;;;;;998.22;926.45;;;;;;;12.26;66.99;94034.59;5066227;28;20119;-44
2021/09/03 01:17:39;;;;;;;981.42;911.83;;;;;;;12.17;66.83;94031.00;5065967;28;20132;-45
2021/09/03 01:20:06;;;;;;;996.95;924.15;;;;;;;12.17;67.35;94042.09;5068403;28;20029;-44
2021/09/03 01:22:32;;;;;;;991.20;917.15;;;;;;;12.21;68.45;94029.94;5084540;28;20047;-45
2021/09/03 01:24:57;;;;;;;996.00;922.50;;;;;;;12.14;68.53;94031.38;5072559;28;20032;-44
2021/09/03 01:27:23;;;;;;;1012.17;936.03;;;;;;;12.19;68.84;94033.97;5072736;28;20020;-43
2021/09/03 01:29:48;;;;;;;1005.63;932.40;;;;;;;12.26;68.55;94034.59;5073048;28;20028;-44
2021/09/03 01:32:14;;;;;;;977.47;905.13;;;;;;;12.12;67.95;94031.19;5072615;28;20036;-43
2021/09/03 01:34:39;;;;;;;980.92;908.95;;;;;;;12.06;67.65;94028.53;5072921;28;20130;-42
2021/09/03 01:37:05;;;;;;;1033.75;957.63;;;;;;;12.05;68.25;94026.34;5072909;28;20024;-44
2021/09/03 01:39:30;;;;;;;992.72;919.60;;;;;;;12.04;68.65;94022.81;5072510;28;20032;-43
2021/09/03 01:41:56;;;;;;;998.90;924.05;;;;;;;11.96;68.39;94022.03;5072792;28;20017;-45
2021/09/03 01:44:21;;;;;;;1025.60;946.75;;;;;;;11.87;68.57;94022.53;5072790;28;20401;-45
2021/09/03 01:46:47;;;;;;;1032.90;954.90;;;;;;;11.89;68.53;94019.97;5072641;28;20561;-45
2021/09/03 01:49:12;;;;;;;1026.53;948.55;;;;;;;11.72;69.30;94022.41;5072345;28;20020;-46
2021/09/03 01:51:37;;;;;;;1062.57;980.40;;;;;;;11.58;70.78;94018.25;5072084;28;20035;-45
2021/09/03 01:54:03;;;;;;;1048.60;967.97;;;;;;;11.66;70.42;94019.03;5072500;28;20028;-47
2021/09/03 01:56:28;;;;;;;1023.47;946.28;;;;;;;11.71;70.04;94020.97;5072254;28;20031;-45
2021/09/03 01:58:54;;;;;;;1026.43;947.60;;;;;;;11.60;70.15;94020.47;5072484;28;20044;-45
2021/09/03 02:01:19;;;;;;;1039.68;959.58;;;;;;;11.57;70.53;94027.06;5072357;28;20016;-46
2021/09/03 02:03:45;;;;;;;1043.18;962.97;;;;;;;11.49;69.64;94013.19;5072135;28;20031;-45
2021/09/03 02:06:10;;;;;;;1018.63;940.33;;;;;;;11.48;70.68;94020.00;5087353;28;20058;-47
2021/09/03 02:08:35;;;;;;;1053.60;973.63;;;;;;;11.38;70.39;94022.50;5088943;28;20477;-45
2021/09/03 02:11:01;;;;;;;1055.60;971.50;;;;;;;11.22;71.26;94011.84;5071841;28;20031;-44
2021/09/03 02:13:26;;;;;;;1060.85;977.38;;;;;;;11.28;70.43;94009.69;5072104;28;20025;-45
2021/09/03 02:15:52;;;;;;;1024.13;946.65;;;;;;;11.32;70.24;94007.34;5072171;28;20040;-44
2021/09/03 02:18:17;;;;;;;1056.20;975.70;;;;;;;11.21;70.71;94013.88;5072108;28;20477;-44
2021/09/03 02:20:43;;;;;;;1047.03;967.95;;;;;;;11.22;70.80;94007.06;5071421;28;20656;-45
2021/09/03 02:23:08;;;;;;;1060.50;978.63;;;;;;;11.10;71.03;93988.53;5071550;28;20127;-44
2021/09/03 02:25:34;;;;;;;1057.13;976.17;;;;;;;11.21;70.64;94002.06;5071653;28;20481;-45
2021/09/03 02:28:00;;;;;;;1052.97;968.80;;;;;;;11.06;71.47;94004.72;5071584;28;20028;-44
2021/09/03 02:30:26;;;;;;;1059.25;978.25;;;;;;;10.96;71.73;94003.69;5071603;28;20028;-45
2021/09/03 02:32:51;;;;;;;1024.63;949.03;;;;;;;11.12;71.02;94005.31;5071731;28;20033;-44
2021/09/03 02:35:17;;;;;;;1043.57;964.70;;;;;;;11.03;70.65;94003.00;5070399;28;20078;-45
2021/09/03 02:37:43;;;;;;;1012.17;940.08;;;;;;;10.95;71.03;93993.91;5071700;28;20033;-44
2021/09/03 02:40:09;;;;;;;1013.03;940.08;;;;;;;10.95;70.90;93989.13;5071613;28;20424;-44
2021/09/03 02:42:34;;;;;;;991.15;919.47;;;;;;;10.94;71.17;93989.66;5053405;28;20516;-47
2021/09/03 02:45:00;;;;;;;1015.85;940.45;;;;;;;10.87;70.90;93990.34;5074770;28;20019;-45
2021/09/03 02:47:25;;;;;;;1026.95;952.60;;;;;;;10.81;71.07;93984.19;5072493;28;20024;-45
2021/09/03 02:49:50;;;;;;;1053.68;977.28;;;;;;;10.71;71.04;93994.22;5071479;28;20390;-45
2021/09/03 02:52:16;;;;;;;1023.90;949.67;;;;;;;10.65;71.26;93986.06;5071013;28;20036;-45
2021/09/03 02:54:41;;;;;;;1041.68;963.50;;;;;;;10.61;71.80;93980.84;5071375;28;20032;-45
2021/09/03 02:57:07;;;;;;;1025.63;950.47;;;;;;;10.65;71.55;93975.75;5071305;28;20416;-47
2021/09/03 02:59:32;;;;;;;1045.53;966.28;;;;;;;10.60;71.70;93982.16;5071290;28;20501;-45
2021/09/03 03:01:58;;;;;;;1050.13;970.95;;;;;;;10.57;72.43;93980.44;5071262;28;20028;-45
2021/09/03 03:04:23;;;;;;;1040.45;962.20;;;;;;;10.58;71.67;93976.44;5070992;28;20024;-46
2021/09/03 03:06:48;;;;;;;1028.38;952.00;;;;;;;10.56;72.19;93984.50;5071190;28;20467;-46
2021/09/03 03:09:14;;;;;;;1039.22;958.40;;;;;;;10.48;72.62;93977.41;5071002;28;20481;-44
2021/09/03 03:11:39;;;;;;;1059.45;978.97;;;;;;;10.39;72.80;93972.34;5070914;28;20063;-44
2021/09/03 03:14:11;;;;;;;1071.50;989.17;;;;;;;10.40;72.66;93974.56;5071069;28;20035;-43
2021/09/03 03:16:36;;;;;;;1045.43;965.40;;;;;;;10.27;72.78;93987.63;5070971;28;20090;-44
2021/09/03 03:19:02;;;;;;;1054.88;974.00;;;;;;;10.27;73.19;93982.13;5090646;28;20032;-44
2021/09/03 03:21:28;;;;;;;1083.38;998.38;;;;;;;10.28;73.40;93987.13;5076213;28;20027;-44
2021/09/03 03:23:53;;;;;;;1085.60;997.50;;;;;;;10.19;73.03;93981.28;5070492;28;20049;-43
2021/09/03 03:26:19;;;;;;;1065.60;982.42;;;;;;;10.32;72.76;93987.53;5070444;28;20036;-43
2021/09/03 03:28:44;;;;;;;1064.75;980.38;;;;;;;10.41;71.52;93986.34;5070481;28;20021;-43
2021/09/03 03:31:09;;;;;;;1072.55;987.22;;;;;;;10.41;72.09;93992.63;5070452;28;20028;-44
2021/09/03 03:33:35;;;;;;;1071.65;989.08;;;;;;;10.25;72.13;93990.19;5070220;28;20031;-44
2021/09/03 03:36:00;;;;;;;1113.63;999.90;;;;;;;10.13;72.15;93995.22;5070468;28;20037;-45
2021/09/03 03:38:26;;;;;;;1090.55;999.90;;;;;;;10.13;72.63;93989.69;5071868;28;20036;-43
2021/09/03 03:40:51;;;;;;;1089.07;997.45;;;;;;;10.21;71.85;94001.56;5076185;28;20032;-45
2021/09/03 03:43:16;;;;;;;1095.30;999.50;;;;;;;10.27;72.57;93996.66;5076472;28;20020;-46
2021/09/03 03:45:42;;;;;;;1102.30;999.90;;;;;;;10.25;71.31;94015.03;5069909;28;20028;-44
2021/09/03 03:48:07;;;;;;;1094.15;999.90;;;;;;;10.17;71.90;94005.91;5069289;28;20086;-44
2021/09/03 03:50:33;;;;;;;1079.95;992.88;;;;;;;10.03;72.13;94013.44;5069138;28;20544;-43
2021/09/03 03:52:58;;;;;;;1101.65;999.90;;;;;;;10.05;72.51;94023.94;5069327;28;20449;-44
2021/09/03 03:55:24;;;;;;;1105.78;999.90;;;;;;;10.03;71.99;94013.44;5069099;28;20063;-44
2021/09/03 03:57:49;;;;;;;1127.38;999.90;;;;;;;10.00;73.15;94022.78;5069616;28;20110;-43
2021/09/03 04:00:15;;;;;;;1097.82;999.15;;;;;;;9.85;72.95;94008.78;5069682;28;20035;-44
2021/09/03 04:02:40;;;;;;;1137.30;999.90;;;;;;;9.98;72.25;94019.81;5069958;28;20033;-44
2021/09/03 04:05:06;;;;;;;1125.32;999.90;;;;;;;10.01;72.04;94026.25;5070257;28;20024;-45
2021/09/03 04:07:32;;;;;;;1112.10;999.90;;;;;;;9.93;73.37;94023.41;5069975;28;20083;-43
2021/09/03 04:09:57;;;;;;;1117.30;999.90;;;;;;;9.98;72.89;94025.34;5069871;28;20039;-45
2021/09/03 04:12:23;;;;;;;1130.43;999.90;;;;;;;9.99;72.95;94032.31;5069853;28;20032;-44
2021/09/03 04:14:48;;;;;;;1117.28;999.90;;;;;;;9.98;72.22;94030.09;5069712;28;20082;-45
2021/09/03 04:17:13;;;;;;;1119.00;999.90;;;;;;;9.96;72.18;94038.91;5069913;28;20032;-45
2021/09/03 04:19:39;;;;;;;1148.32;999.90;;;;;;;9.94;72.41;94035.91;5070129;28;20434;-44
2021/09/03 04:22:04;;;;;;;1157.40;999.90;;;;;;;9.92;72.89;94033.69;5069278;28;20052;-43
2021/09/03 04:24:30;;;;;;;1105.05;999.90;;;;;;;9.92;73.26;94043.97;5069847;28;20055;-43
2021/09/03 04:26:56;;;;;;;1110.82;999.90;;;;;;;9.93;72.94;94042.72;5069747;28;20060;-44
2021/09/03 04:29:23;;;;;;;1103.85;999.90;;;;;;;9.81;73.11;94049.72;5069667;28;20571;-43
2021/09/03 04:31:48;;;;;;;1134.38;999.90;;;;;;;9.73;73.19;94046.09;5069916;28;20446;-44
2021/09/03 04:34:14;;;;;;;1136.22;999.90;;;;;;;9.73;72.84;94046.09;5070064;28;20020;-44
2021/09/03 04:36:39;;;;;;;1103.10;999.90;;;;;;;9.88;72.73;94047.06;5069607;28;20021;-43
2021/09/03 04:39:04;;;;;;;1108.60;999.90;;;;;;;9.74;73.28;94042.84;5069758;28;20025;-45
2021/09/03 04:41:30;;;;;;;1127.57;999.90;;;;;;;9.76;73.89;94036.78;5069509;28;20082;-44
2021/09/03 04:43:56;;;;;;;1139.35;999.90;;;;;;;10.03;73.23;94049.28;5069582;28;20029;-43
2021/09/03 04:46:21;;;;;;;1122.90;999.90;;;;;;;10.07;72.69;94049.72;5069459;28;20032;-43
2021/09/03 04:48:47;;;;;;;1120.80;999.90;;;;;;;10.09;72.36;94049.91;5069800;28;20036;-43
2021/09/03 04:51:12;;;;;;;1120.40;999.90;;;;;;;10.02;72.74;94047.81;5069448;28;20031;-43
2021/09/03 04:53:38;;;;;;;1143.40;999.90;;;;;;;9.86;73.48;94051.63;5069072;28;20029;-44
2021/09/03 04:56:04;;;;;;;1127.85;999.90;;;;;;;9.78;74.06;94053.53;5059571;28;20035;-44
2021/09/03 04:58:29;;;;;;;1120.22;999.90;;;;;;;9.81;74.58;94058.72;5060874;28;20044;-44
2021/09/03 05:00:54;;;;;;;1128.93;999.90;;;;;;;9.89;74.68;94053.34;5053636;28;20024;-43
2021/09/03 05:03:20;;;;;;;1115.35;999.90;;;;;;;9.94;74.43;94053.22;5053304;28;20078;-44
2021/09/03 05:05:45;;;;;;;1164.75;999.90;;;;;;;10.02;74.70;94047.81;5053356;28;20031;-42
2021/09/03 05:08:11;;;;;;;1135.95;999.90;;;;;;;10.00;75.25;94050.38;5053135;28;20402;-43
2021/09/03 05:10:36;;;;;;;1156.15;999.90;;;;;;;10.15;74.71;94036.81;5072916;28;20044;-43
2021/09/03 05:13:02;;;;;;;1129.63;999.90;;;;;;;10.28;74.94;94030.53;5072765;28;20024;-45
2021/09/03 05:15:39;;;;;;;1122.82;999.90;;;;;;;10.36;74.35;94037.63;5073152;28;20541;-45
2021/09/03 05:18:04;;;;;;;1146.45;999.90;;;;;;;10.41;74.82;94039.53;5072913;28;20021;-44
2021/09/03 05:20:30;;;;;;;1141.88;999.90;;;;;;;10.48;75.33;94041.63;5072879;28;20031;-44
2021/09/03 05:22:56;;;;;;;1154.43;999.90;;;;;;;10.56;75.57;94033.44;5072567;28;20152;-44
2021/09/03 05:25:23;;;;;;;1158.97;999.90;;;;;;;10.68;75.23;94033.97;5072713;28;20503;-44
2021/09/03 05:27:48;;;;;;;1145.55;999.90;;;;;;;10.73;74.96;94038.59;5072667;28;20028;-44
2021/09/03 05:30:14;;;;;;;1179.28;999.90;;;;;;;10.71;75.01;94033.63;5073055;28;20040;-43
2021/09/03 05:32:40;;;;;;;1175.20;999.90;;;;;;;10.68;74.99;94039.50;5072912;28;20174;-45
2021/09/03 05:35:06;;;;;;;1176.18;999.90;;;;;;;10.98;75.59;94042.59;5072898;28;20108;-44
2021/09/03 05:37:31;;;;;;;1176.03;999.90;;;;;;;11.20;74.47;94045.56;5072837;28;20083;-44
2021/09/03 05:39:58;;;;;;;1168.03;999.90;;;;;;;11.30;75.05;94048.59;5072533;28;20036;-44
2021/09/03 05:42:24;;;;;;;1184.75;999.90;;;;;;;11.37;74.13;94047.91;5072552;28;20024;-44
2021/09/03 05:44:50;;;;;;;1186.82;999.90;;;;;;;11.49;74.32;94053.91;5072376;28;20028;-44
2021/09/03 05:47:16;;;;;;;1143.80;999.90;;;;;;;11.66;74.28;94048.72;5072739;28;20032;-44
2021/09/03 05:49:41;;;;;;;1146.10;999.90;;;;;;;11.70;74.28;94054.66;5072343;28;20033;-45
2021/09/03 05:52:07;;;;;;;1170.85;999.90;;;;;;;11.77;74.26;94051.22;5072254;28;20102;-44
2021/09/03 05:54:32;;;;;;;1170.70;999.90;;;;;;;11.87;74.11;94052.97;5072397;28;20024;-47
2021/09/03 05:56:58;;;;;;;1151.38;999.90;;;;;;;11.91;74.97;94055.41;5072517;28;20047;-45
2021/09/03 05:59:23;;;;;;;1157.88;999.90;;;;;;;12.02;73.93;94055.84;5072479;28;20043;-44
2021/09/03 06:01:49;;;;;;;1170.05;999.90;;;;;;;12.10;73.80;94051.09;5072468;28;20580;-44
2021/09/03 06:04:14;;;;;;;1158.55;999.90;;;;;;;12.23;72.78;94055.03;5072319;28;20024;-44
2021/09/03 06:06:40;;;;;;;1163.20;999.90;;;;;;;12.19;71.88;94056.13;5072258;28;20027;-44
2021/09/03 06:09:05;;;;;;;1136.82;999.90;;;;;;;12.36;72.07;94054.94;5071791;28;20040;-46
2021/09/03 06:11:31;;;;;;;1148.65;999.90;;;;;;;12.48;71.48;94056.84;5071859;28;20028;-44
2021/09/03 06:13:56;;;;;;;1141.28;999.90;;;;;;;12.55;72.02;94028.44;5071758;28;20103;-44
2021/09/03 06:16:23;;;;;;;1165.03;999.90;;;;;;;12.86;70.63;94049.41;5072180;28;20048;-44
2021/09/03 06:18:49;;;;;;;1141.63;999.90;;;;;;;12.98;71.01;94049.84;5072074;28;20104;-44
2021/09/03 06:21:15;;;;;;;1152.97;999.90;;;;;;;13.06;70.27;94047.13;5071498;28;20507;-45
2021/09/03 06:23:41;;;;;;;1141.82;999.90;;;;;;;13.14;70.36;94048.63;5071281;28;20044;-45
2021/09/03 06:26:06;;;;;;;1113.53;999.90;;;;;;;13.12;69.38;94031.78;5071661;28;20067;-45
2021/09/03 06:28:32;;;;;;;1157.95;999.90;;;;;;;13.29;68.59;94042.34;5071869;28;20059;-46
2021/09/03 06:30:57;;;;;;;1073.93;981.65;;;;;;;13.35;65.41;94046.44;5071872;28;20093;-44
2021/09/03 06:33:23;;;;;;;1101.63;999.90;;;;;;;13.46;67.37;94048.09;5071444;28;20078;-44
2021/09/03 06:35:48;;;;;;;1099.40;999.90;;;;;;;13.46;67.91;94029.44;5071778;28;20020;-44
2021/09/03 06:38:14;;;;;;;1096.68;999.72;;;;;;;13.65;66.75;94040.16;5071713;28;20503;-44
2021/09/03 06:40:39;;;;;;;1098.25;999.72;;;;;;;13.71;65.44;94037.94;5071361;28;20084;-44
2021/09/03 06:43:05;;;;;;;1068.40;983.85;;;;;;;13.87;65.12;94044.97;5071385;28;20043;-44
2021/09/03 06:45:30;;;;;;;1081.22;994.03;;;;;;;13.87;65.11;94039.44;5071526;28;20036;-44
2021/09/03 06:47:56;;;;;;;1054.28;968.40;;;;;;;13.99;65.32;94053.69;5071270;28;20021;-44
2021/09/03 06:50:22;;;;;;;1097.97;999.90;;;;;;;14.29;66.62;94059.22;5071495;28;20017;-44
2021/09/03 06:52:48;;;;;;;1086.63;989.38;;;;;;;14.67;62.80;94054.28;5071175;28;20151;-44
2021/09/03 06:55:15;;;;;;;998.85;923.42;;;;;;;15.31;60.67;94050.84;5071086;28;20020;-44
2021/09/03 06:57:42;;;;;;;864.15;803.55;;;;;;;16.41;57.92;94053.91;5070992;28;20020;-45
2021/09/03 07:00:08;;;;;;;853.20;793.28;;;;;;;17.84;52.72;94056.22;5071300;28;20127;-44
2021/09/03 07:02:34;;;;;;;990.30;901.35;;;;;;;19.31;48.39;94039.94;5071326;28;20009;-44
2021/09/03 07:04:59;;;;;;;1011.58;922.95;;;;;;;20.72;45.72;94037.72;5070811;28;20059;-45
2021/09/03 07:07:25;;;;;;;1104.38;995.40;;;;;;;21.02;43.63;94051.66;5070526;28;20020;-44
2021/09/03 07:09:51;;;;;;;1091.18;984.20;;;;;;;20.56;43.17;94047.84;5079823;28;20028;-44
2021/09/03 07:12:17;;;;;;;1063.50;962.13;;;;;;;20.52;44.06;94051.13;5090974;28;20024;-44
2021/09/03 07:14:44;;;;;;;1092.00;989.53;;;;;;;20.11;42.93;94046.91;5091038;28;20059;-44
2021/09/03 07:17:09;;;;;;;1082.00;982.45;;;;;;;19.00;48.33;94055.88;5072320;28;20024;-44
2021/09/03 07:19:35;;;;;;;1040.63;946.83;;;;;;;18.84;49.90;94057.50;5075827;28;20397;-45
2021/09/03 07:22:02;;;;;;;1110.30;998.60;;;;;;;19.21;49.30;94049.69;5085792;28;20047;-45
2021/09/03 07:24:28;;;;;;;1075.43;974.28;;;;;;;20.87;44.20;94046.47;5090708;28;20485;-45
2021/09/03 07:26:53;;;;;;;1101.95;989.25;;;;;;;23.13;38.46;94049.16;5087358;28;20016;-44
2021/09/03 07:29:19;;;;;;;1093.85;990.13;;;;;;;25.32;34.33;94043.19;5076618;28;20028;-44
2021/09/03 07:31:44;;;;;;;1043.60;958.92;;;;;;;26.37;30.01;94040.41;5090577;28;20020;-44
2021/09/03 07:34:10;;;;;;;1074.28;981.80;;;;;;;27.27;30.03;94034.38;5090911;28;20027;-43
2021/09/03 07:36:35;;;;;;;1086.97;991.25;;;;;;;27.49;28.59;94030.38;5090940;28;20492;-44
2021/09/03 07:39:01;;;;;;;1100.63;999.67;;;;;;;29.13;27.17;94040.06;5090899;28;20419;-43
2021/09/03 07:41:26;;;;;;;1116.07;999.90;;;;;;;30.21;25.71;94047.91;5090529;28;20543;-44
2021/09/03 07:43:52;;;;;;;1057.10;971.78;;;;;;;31.36;23.24;94055.47;5090227;28;20034;-44
2021/09/03 07:46:17;;;;;;;1044.38;961.95;;;;;;;30.47;23.79;94040.88;5090743;28;20036;-44
2021/09/03 07:48:43;;;;;;;1040.18;957.03;;;;;;;30.06;24.56;94043.16;5090815;28;20050;-43
2021/09/03 07:51:08;;;;;;;1027.20;943.13;;;;;;;29.71;24.91;94039.22;5090733;28;20027;-44
2021/09/03 07:53:34;;;;;;;1058.93;973.03;;;;;;;26.90;28.96;94044.19;5090632;28;20035;-43
2021/09/03 07:56:00;;;;;;;1007.28;929.83;;;;;;;26.69;27.85;94041.84;5090670;28;20036;-43
2021/09/03 07:58:25;;;;;;;950.55;878.78;;;;;;;26.30;28.26;94045.06;5090274;28;20032;-43
2021/09/03 08:00:51;;;;;;;1022.42;942.15;;;;;;;25.45;31.78;94045.28;5090316;28;20071;-43
2021/09/03 08:03:16;;;;;;;1023.33;941.28;;;;;;;27.74;29.63;94046.97;5071555;28;20020;-44
2021/09/03 08:05:42;;;;;;;979.38;902.25;;;;;;;27.88;27.30;94035.44;5070272;28;20416;-43
2021/09/03 08:08:07;;;;;;;970.33;895.10;;;;;;;25.34;29.80;94035.53;5070420;28;20424;-42
2021/09/03 08:10:34;;;;;;;973.85;899.28;;;;;;;26.35;30.32;94040.31;5069986;28;20444;-43
2021/09/03 08:13:03;;;;;;;939.35;872.75;;;;;;;28.81;26.06;94030.44;5069924;28;20020;-43
2021/09/03 08:15:31;;;;;;;944.25;871.72;;;;;;;30.33;24.41;94029.06;5084550;28;20055;-46
2021/09/03 08:17:58;;;;;;;909.42;843.53;;;;;;;29.37;23.25;94026.69;5075948;28;20024;-44
2021/09/03 08:20:24;;;;;;;936.30;864.00;;;;;;;30.05;23.44;94024.63;5070028;28;20030;-44
2021/09/03 08:22:51;;;;;;;1036.30;958.08;;;;;;;29.86;25.25;94026.19;5085813;28;20128;-43
2021/09/03 08:25:18;;;;;;;931.85;863.33;;;;;;;30.38;22.84;94027.81;5090310;28;20028;-44
2021/09/03 08:27:44;;;;;;;907.45;839.50;;;;;;;29.56;23.28;94023.06;5078413;28;20122;-44
2021/09/03 08:30:09;;;;;;;961.05;889.05;;;;;;;30.21;23.99;94025.13;5069174;28;20398;-45
2021/09/03 08:32:35;;;;;;;931.47;863.30;;;;;;;28.46;25.12;94020.66;5068712;28;20031;-43
2021/09/03 08:35:01;;;;;;;960.47;889.45;;;;;;;30.08;24.09;94011.91;5073211;28;20032;-43
2021/09/03 08:37:26;;;;;;;968.17;895.38;;;;;;;30.96;22.80;94008.03;5073789;28;20048;-44
2021/09/03 08:39:53;;;;;;;980.47;906.80;;;;;;;32.71;21.15;94007.25;5073749;28;20063;-44
2021/09/03 08:42:19;;;;;;;936.22;868.92;;;;;;;33.78;19.48;93999.91;5073693;28;20024;-44
2021/09/03 08:44:45;;;;;;;928.78;862.85;;;;;;;34.27;18.69;94005.69;5074037;28;20386;-44
2021/09/03 08:47:11;;;;;;;939.15;870.72;;;;;;;34.02;18.58;93994.56;5073778;28;20036;-44
2021/09/03 08:49:37;;;;;;;950.88;879.47;;;;;;;33.17;19.73;93996.00;5073759;28;20028;-44
2021/09/03 08:52:02;;;;;;;905.50;838.40;;;;;;;29.97;21.68;93993.78;5073431;28;20033;-43
2021/09/03 08:54:28;;;;;;;918.20;851.97;;;;;;;29.53;23.79;93989.50;5073707;28;20093;-43
2021/09/03 08:56:53;;;;;;;726.05;678.42;;;;;;;30.19;21.41;93979.47;5073696;28;20425;-43
2021/09/03 08:59:19;;;;;;;692.45;648.05;;;;;;;30.81;19.54;93986.97;5073178;28;20497;-43
2021/09/03 09:02:14;;;;;;;734.80;686.40;;;;;;;30.88;21.35;93974.34;5073236;28;20048;-43
2021/09/03 09:04:45;;;;;;;765.00;714.63;;;;;;;32.12;20.37;93978.81;5073552;28;20028;-45
2021/09/03 09:07:12;;;;;;;827.53;773.15;;;;;;;33.50;19.31;93983.72;5073552;28;20036;-44
2021/09/03 09:09:47;;;;;;;794.88;741.70;;;;;;;33.56;17.13;93971.63;5073388;28;20029;-44
2021/09/03 09:12:17;;;;;;;822.63;769.65;;;;;;;34.98;17.09;93978.63;5073237;28;20021;-43
2021/09/03 09:15:03;;;;;;;899.00;836.60;;;;;;;35.85;16.53;93965.09;5073409;28;20105;-44
2021/09/03 09:17:40;;;;;;;836.92;780.63;;;;;;;36.63;14.29;93969.88;5072931;28;20490;-44
2021/09/03 09:20:14;;;;;;;903.95;840.58;;;;;;;36.61;14.81;93978.50;5072877;28;20028;-44
2021/09/03 09:23:09;;;;;;;882.45;821.58;;;;;;;36.87;14.31;93976.47;5072813;28;20091;-45
2021/09/03 09:25:36;;;;;;;912.45;849.75;;;;;;;36.61;14.79;93981.38;5051106;28;20037;-44
2021/09/03 09:28:18;;;;;;;894.88;834.22;;;;;;;36.55;14.85;93973.47;5073129;28;20629;-44
2021/09/03 09:30:44;;;;;;;895.70;834.03;;;;;;;36.19;16.32;93973.25;5055171;28;20020;-45
2021/09/03 09:33:11;;;;;;;829.58;774.72;;;;;;;36.66;14.33;93974.22;5073005;28;20081;-45
2021/09/03 09:35:52;;;;;;;822.35;769.35;;;;;;;35.96;15.33;93965.91;5072578;28;20028;-44
2021/09/03 09:38:22;;;;;;;838.97;781.40;;;;;;;35.75;15.31;93962.16;5072954;28;20082;-43
2021/09/03 09:40:48;;;;;;;841.42;786.38;;;;;;;34.63;16.63;93953.13;5072912;28;20095;-43
2021/09/03 09:43:31;;;;;;;820.00;766.70;;;;;;;35.58;16.50;93963.44;5072607;28;20119;-43
2021/09/03 09:46:28;;;;;;;798.22;747.22;;;;;;;35.56;16.04;93957.69;5072420;28;20036;-45
2021/09/03 09:48:56;;;;;;;755.92;705.05;;;;;;;33.61;16.69;93950.94;5072480;28;20024;-43
2021/09/03 09:51:27;;;;;;;779.20;727.72;;;;;;;32.70;18.49;93950.75;5072506;28;20468;-43
2021/09/03 09:53:58;;;;;;;708.92;664.42;;;;;;;33.40;17.33;93954.88;5072191;28;20031;-43
2021/09/03 09:56:25;;;;;;;715.40;671.22;;;;;;;34.07;16.69;93948.06;5072686;28;20028;-44
2021/09/03 09:58:52;;;;;;;696.47;650.40;;;;;;;33.47;17.54;93950.72;5076382;28;20043;-43
2021/09/03 10:01:18;;;;;;;742.58;694.55;;;;;;;32.78;18.51;93945.91;5091597;28;20040;-43
2021/09/03 10:03:47;;;;;;;704.05;660.13;;;;;;;33.74;17.90;93948.28;5087996;28;20068;-44
2021/09/03 10:06:15;;;;;;;746.45;700.65;;;;;;;34.28;16.55;93926.16;5075808;28;20035;-44
2021/09/03 10:08:42;;;;;;;766.72;718.35;;;;;;;33.35;17.32;93955.50;5072262;28;20456;-44
2021/09/03 10:11:07;;;;;;;745.63;697.10;;;;;;;33.22;18.80;93951.00;5060315;28;20024;-44
2021/09/03 10:13:33;;;;;;;737.00;689.92;;;;;;;33.92;17.56;93951.41;5090711;28;20546;-44
2021/09/03 10:15:58;;;;;;;706.20;663.05;;;;;;;34.87;16.12;93945.50;5092548;28;20035;-44
2021/09/03 10:18:25;;;;;;;776.58;727.63;;;;;;;35.88;15.72;93951.44;5092443;28;20028;-44
2021/09/03 10:20:50;;;;;;;715.00;670.80;;;;;;;36.42;14.10;93952.56;5086629;28;20020;-46
2021/09/03 10:23:53;;;;;;;796.17;744.45;;;;;;;36.67;14.88;93949.78;5091985;28;20104;-44
2021/09/03 10:26:39;;;;;;;766.03;714.33;;;;;;;37.15;13.21;93947.03;5092049;28;20497;-44
2021/09/03 10:29:31;;;;;;;800.38;748.35;;;;;;;37.20;14.37;93942.75;5092335;28;20028;-44
2021/09/03 10:37:15;;;;;;;837.08;781.85;;;;;;;37.96;14.13;93939.19;5076360;28;20036;-44
2021/09/03 10:39:48;;;;;;;787.25;737.83;;;;;;;37.82;12.35;93937.03;5071857;28;20036;-44
2021/09/03 10:42:36;;;;;;;833.63;776.97;;;;;;;38.17;13.87;93942.75;5071427;28;20025;-44
2021/09/03 10:45:09;;;;;;;;;;;;;;;38.56;13.78;93944.09;5072270;28;20109;-44
2021/09/03 10:47:55;;;;;;;784.65;734.00;;;;;;;37.83;12.47;93938.50;5071340;28;19958;-44
2021/09/03 10:50:27;;;;;;;779.72;729.70;;;;;;;38.05;13.31;93929.09;5071287;28;20469;-44
2021/09/03 10:53:05;;;;;;;852.17;795.55;;;;;;;38.02;14.43;93932.69;5071527;28;20029;-44
2021/09/03 10:55:56;;;;;;;819.97;767.22;;;;;;;38.22;14.08;93927.59;5070769;28;20029;-44
2021/09/03 10:58:36;;;;;;;809.40;757.55;;;;;;;38.62;13.82;93921.72;5071397;28;20036;-44
2021/09/03 11:01:14;;;;;;;817.05;763.35;;;;;;;37.90;13.75;93919.72;5071282;28;20418;-44
2021/09/03 11:03:50;;;;;;;797.13;745.70;;;;;;;36.13;14.01;93922.16;5071114;28;20124;-43
2021/09/03 11:06:26;;;;;;;733.88;684.78;;;;;;;33.18;16.86;93913.72;5070978;28;20089;-43
2021/09/03 11:09:17;;;;;;;641.75;600.70;;;;;;;31.34;19.29;93920.56;5071126;28;20026;-43
2021/09/03 11:11:45;;;;;;;610.72;572.95;;;;;;;32.27;19.01;93920.56;5071019;28;20436;-43
2021/09/03 11:14:19;;;;;;;561.55;526.80;;;;;;;31.41;19.52;93922.94;5070759;28;20128;-44
2021/09/03 11:16:54;;;;;;;570.08;535.13;;;;;;;32.15;19.97;93918.19;5071113;28;20028;-43
2021/09/03 11:19:28;;;;;;;596.33;559.28;;;;;;;32.62;20.18;93921.97;5070633;28;20429;-44
2021/09/03 11:22:04;;;;;;;596.10;559.90;;;;;;;32.43;20.04;93920.88;5070482;28;20031;-43